Arlington, Ohio
Current Conditions -  °F | °C
As of 10:53 AM on Monday 24 Nov 2014 (Local Time) from KFDY Reporting Station
Broken Clouds Broken Clouds  
Wind Chill: 57°   Ceiling: 6000
Heat Index: 57°   Visibility: 10mi
Dew Point: 51°   Wind: 29mph
Humidity: 81%   Direction: 210°SSW
Pressure: 29.22"   Gusts: 35mph
Location:  40.89°N, 83.65°W
Report Text: KFDY 241553Z AUTO 21025G30KT 10SM FEW026 BKN060 BKN070 14/11 A2922 RMK AO2 PK WND 21034/1538 RAE05 SLP891 P0000 T01390106
Loading
Personal Weather Stations






























Interactive Weather Map New forecast layout! Learn more

10-Day Weather Forecast

Advertisements
Track Severe Weather on mobile